Purdue University Airport Lafayette US
ICAO: KLAF
IATA: LAF
Category: Medium
Scheduled Services: No

Elevation: 606 ft
TransAlt. 18000 ft.

Airport Communications:
ASOS:127.75
ATIS:127.75
CHICAGO CNTR:123.85
CTAF:119.6
GND:121.9
TERRE HAUTE RDO:122.2
LAFAYETTE TWR:119.6
UNICOM:122.95

KLAF Zoom In..

Runways:

(A) RW 05 length 4225 ft width 100 ft
---- / hdg 51

(B) RW 10 length 6600 ft width 150 ft
ILS 110.30 / hdg 100

(C) RW 23 length 4225 ft width 100 ft
---- / hdg 231

(D) RW 28 length 6600 ft width 150 ft
---- / hdg 280

Location; KLAF
Day. 21 / Time. 14.54 Zulu
* Altimeter: 30.10
* Temperature: 20° c. 68°f.
* Wind from: 120° Speed 06 kn.
Dewpoint: 17° c.
Visibility: 7 Statute Miles.
Clouds: Few 4600 ft.
Clouds: Broken 8000 ft.
Clouds: Overcast 9000 ft.

KLAF 211454Z 12006KT 7SM FEW046 BKN080 OVC090 20/17 A3010 RMK AO2 SLP188 T02000172 50000


Wind From 120°
Speed 06 kn.

 
 
jpsmedia.com for Web Design SOUNDCLOUD worldairports.se 2018   terms of use